Plesetsk, Russia
Current Conditions -  °F | °C
As of 6:00 PM on Thursday 30 Oct 2014 (Local Time) from ULAA Reporting Station
Broken Clouds Broken Clouds  
Wind Chill: 34°   Ceiling: 3100
Heat Index: 41°   Visibility: 6mi
Dew Point: 32°   Wind: 11mph
Humidity: 70%   Direction: 260°W
Pressure: 29.65"   Gusts: NA
Location:  62.72°N, 40.28°E
Report Text: ULAA 301500Z 26005MPS 240V300 9999 BKN031 05/00 Q1004 NOSIG RMKQFE752/1003 SC065
Loading
Personal Weather Stations






























Interactive Weather Map
Tropical Storm Tracking
New forecast layout! Learn more

10-Day Weather Forecast

Advertisements
Track Severe Weather on mobile